Time;durP1;ratioP1;P1;durP2;ratioP2;P2;SDS_P1;SDS_P2;PMS_P1;PMS_P2;Temp;Humidity;BMP_temperature;BMP_pressure;BME280_temperature;BME280_humidity;BME280_pressure;Samples;Min_cycle;Max_cycle;Signal;HPM_P1;HPM_P2
2024/01/20 00:02:06;;;;;;;12.02;5.32;;;0.80;99.90;;;;;;5057620;28;20061;-63
2024/01/20 00:04:33;;;;;;;10.50;5.93;;;0.70;99.90;;;;;;5076174;28;20420;-63
2024/01/20 00:07:00;;;;;;;12.70;5.50;;;0.70;99.90;;;;;;5056074;28;20463;-63
2024/01/20 00:09:27;;;;;;;10.52;5.45;;;0.70;99.90;;;;;;5075981;28;20454;-63
2024/01/20 00:11:54;;;;;;;9.00;4.88;;;0.70;99.90;;;;;;5056590;28;20458;-65
2024/01/20 00:14:21;;;;;;;8.27;5.30;;;0.60;99.90;;;;;;5057471;28;20056;-63
2024/01/20 00:16:49;;;;;;;10.52;6.03;;;0.60;99.90;;;;;;5056860;28;20057;-62
2024/01/20 00:19:15;;;;;;;14.43;5.90;;;0.60;99.90;;;;;;5058060;28;20056;-64
2024/01/20 00:21:42;;;;;;;8.55;5.28;;;0.60;99.90;;;;;;5075134;28;20051;-62
2024/01/20 00:24:09;;;;;;;13.98;5.97;;;0.60;99.90;;;;;;5052460;28;20052;-63
2024/01/20 00:26:35;;;;;;;12.38;5.55;;;0.60;99.90;;;;;;5074960;28;20048;-63
2024/01/20 00:29:03;;;;;;;8.73;5.55;;;0.60;99.90;;;;;;5054749;28;20044;-62
2024/01/20 00:31:30;;;;;;;10.90;5.72;;;0.60;99.90;;;;;;5057250;28;20048;-62
2024/01/20 00:33:58;;;;;;;12.00;7.03;;;0.60;99.90;;;;;;5055546;28;20098;-64
2024/01/20 00:36:25;;;;;;;12.05;6.40;;;0.90;99.90;;;;;;5054204;28;20077;-64
2024/01/20 00:38:52;;;;;;;8.98;6.28;;;0.60;99.90;;;;;;5055947;28;20101;-63
2024/01/20 00:41:19;;;;;;;12.82;6.57;;;1.90;99.90;;;;;;5052537;28;20048;-62
2024/01/20 00:43:46;;;;;;;9.25;6.70;;;0.50;99.90;;;;;;5055237;28;20075;-63
2024/01/20 00:46:12;;;;;;;8.57;6.75;;;0.50;99.90;;;;;;5055079;28;20052;-64
2024/01/20 00:48:39;;;;;;;12.15;6.93;;;0.40;99.90;;;;;;5056291;28;20049;-63
2024/01/20 00:51:08;;;;;;;12.70;7.30;;;0.40;99.90;;;;;;5054825;28;20049;-62
2024/01/20 00:53:34;;;;;;;8.57;6.43;;;0.40;99.90;;;;;;5054269;28;20049;-63
2024/01/20 00:56:01;;;;;;;12.25;6.97;;;0.30;99.90;;;;;;5055846;28;20053;-63
2024/01/20 00:58:28;;;;;;;14.73;6.90;;;0.40;99.90;;;;;;5054306;28;20098;-63
2024/01/20 01:00:55;;;;;;;10.90;7.00;;;0.40;99.90;;;;;;5056642;28;20048;-63
2024/01/20 01:03:22;;;;;;;18.60;7.75;;;0.40;99.90;;;;;;5055846;28;20105;-62
2024/01/20 01:05:49;;;;;;;10.65;7.28;;;0.70;99.90;;;;;;5056662;28;20131;-62
2024/01/20 01:08:17;;;;;;;11.98;7.70;;;0.40;99.90;;;;;;5074253;28;20040;-63
2024/01/20 01:10:44;;;;;;;11.85;7.03;;;0.40;99.90;;;;;;5053568;28;20124;-63
2024/01/20 01:13:11;;;;;;;8.48;7.50;;;0.30;99.90;;;;;;5055470;28;20512;-64
2024/01/20 01:15:38;;;;;;;15.35;8.15;;;0.40;99.90;;;;;;5052235;28;20057;-62
2024/01/20 01:18:05;;;;;;;10.15;8.27;;;0.40;99.90;;;;;;5054973;28;20060;-64
2024/01/20 01:20:32;;;;;;;14.75;8.82;;;0.40;99.90;;;;;;5074106;28;20044;-63
2024/01/20 01:22:59;;;;;;;12.30;8.73;;;0.40;99.90;;;;;;5063127;28;20396;-63
2024/01/20 01:25:27;;;;;;;14.23;8.02;;;0.40;99.90;;;;;;5074208;28;20052;-63
2024/01/20 01:27:54;;;;;;;13.85;8.48;;;0.40;99.90;;;;;;5094390;28;20052;-63
2024/01/20 01:30:21;;;;;;;16.15;8.13;;;0.40;99.90;;;;;;5075198;28;20106;-63
2024/01/20 01:32:48;;;;;;;13.48;9.38;;;0.40;99.90;;;;;;5073712;28;20057;-63
2024/01/20 01:35:15;;;;;;;14.25;9.88;;;1.00;99.90;;;;;;5093961;28;20109;-63
2024/01/20 01:37:42;;;;;;;13.40;8.73;;;0.50;99.90;;;;;;5074390;28;20052;-62
2024/01/20 01:40:10;;;;;;;19.17;8.30;;;0.50;99.90;;;;;;5074803;28;20105;-63
2024/01/20 01:42:38;;;;;;;14.52;8.30;;;0.50;99.90;;;;;;5093867;28;20044;-63
2024/01/20 01:45:05;;;;;;;14.00;8.82;;;0.60;99.90;;;;;;5093484;28;20491;-63
2024/01/20 01:47:32;;;;;;;14.23;8.50;;;0.60;99.90;;;;;;5074972;28;20059;-63
2024/01/20 01:49:59;;;;;;;16.30;8.70;;;0.60;99.90;;;;;;5091650;28;20469;-63
2024/01/20 01:52:27;;;;;;;13.43;9.00;;;0.70;99.90;;;;;;5093108;28;20554;-63
2024/01/20 01:54:54;;;;;;;11.95;8.63;;;0.70;99.90;;;;;;5074060;28;20040;-63
2024/01/20 01:57:22;;;;;;;14.30;8.63;;;0.70;99.90;;;;;;5075172;28;20056;-63
2024/01/20 01:59:51;;;;;;;15.65;8.65;;;0.70;99.90;;;;;;5073837;28;20064;-62
2024/01/20 02:02:17;;;;;;;13.93;8.48;;;0.80;99.90;;;;;;5071336;28;20052;-62
2024/01/20 02:04:44;;;;;;;12.90;8.15;;;0.80;99.90;;;;;;5074288;28;20052;-63
2024/01/20 02:07:12;;;;;;;15.10;8.88;;;0.70;99.90;;;;;;5092877;28;20044;-63
2024/01/20 02:09:40;;;;;;;13.35;8.75;;;0.80;99.90;;;;;;5074473;28;20129;-63
2024/01/20 02:12:08;;;;;;;11.85;8.32;;;0.80;99.90;;;;;;5093333;28;20043;-63
2024/01/20 02:14:35;;;;;;;19.23;9.35;;;0.80;99.90;;;;;;5074639;28;20055;-63
2024/01/20 02:17:06;;;;;;;15.55;8.43;;;0.80;99.90;;;;;;5093366;28;20044;-63
2024/01/20 02:19:37;;;;;;;14.32;8.90;;;0.80;99.90;;;;;;5073421;28;20056;-63
2024/01/20 02:22:10;;;;;;;11.85;7.53;;;0.70;99.90;;;;;;5072844;28;20092;-63
2024/01/20 02:24:38;;;;;;;17.17;8.23;;;0.70;99.90;;;;;;5071190;28;20044;-63
2024/01/20 02:27:05;;;;;;;16.02;8.35;;;0.70;99.90;;;;;;5054478;28;20102;-63
2024/01/20 02:29:32;;;;;;;14.80;9.30;;;0.70;99.90;;;;;;5052792;28;20485;-62
2024/01/20 02:31:59;;;;;;;18.90;8.63;;;0.70;99.90;;;;;;5054344;28;20052;-62
2024/01/20 02:34:27;;;;;;;12.85;8.90;;;0.70;99.90;;;;;;5053547;28;20135;-64
2024/01/20 02:36:53;;;;;;;13.20;8.40;;;1.00;99.90;;;;;;5054134;28;20052;-63
2024/01/20 02:39:22;;;;;;;13.52;8.80;;;0.60;99.90;;;;;;5053744;28;20049;-62
2024/01/20 02:41:48;;;;;;;15.07;8.80;;;0.70;99.90;;;;;;5052001;28;20569;-63
2024/01/20 02:44:15;;;;;;;14.07;8.60;;;0.70;99.90;;;;;;5072365;28;20048;-62
2024/01/20 02:46:42;;;;;;;15.50;9.45;;;0.70;99.90;;;;;;5052790;28;20496;-62
2024/01/20 02:49:09;;;;;;;10.80;8.65;;;0.60;99.90;;;;;;5053196;28;20053;-63
2024/01/20 02:51:36;;;;;;;18.30;8.80;;;0.60;99.90;;;;;;5052794;28;20496;-63
2024/01/20 02:54:03;;;;;;;14.77;8.75;;;0.60;99.90;;;;;;5054257;28;20537;-64
2024/01/20 02:56:31;;;;;;;15.43;8.98;;;0.50;99.90;;;;;;5071793;28;20086;-63
2024/01/20 02:58:58;;;;;;;12.55;9.27;;;0.50;99.90;;;;;;5072109;28;20045;-62
2024/01/20 03:01:25;;;;;;;16.50;10.98;;;0.50;99.90;;;;;;5072346;28;20048;-62
2024/01/20 03:03:52;;;;;;;20.05;10.68;;;0.40;99.90;;;;;;5049410;28;20040;-63
2024/01/20 03:06:19;;;;;;;15.82;11.07;;;0.40;99.90;;;;;;5053628;28;20053;-63
2024/01/20 03:08:45;;;;;;;14.88;9.90;;;0.40;99.90;;;;;;5052577;28;20067;-62
2024/01/20 03:11:12;;;;;;;19.83;11.65;;;0.30;99.90;;;;;;5053076;28;20539;-63
2024/01/20 03:13:40;;;;;;;14.50;10.65;;;0.30;99.90;;;;;;5052324;28;20067;-63
2024/01/20 03:16:08;;;;;;;20.75;11.75;;;0.20;99.90;;;;;;5072053;28;20450;-63
2024/01/20 03:18:37;;;;;;;16.58;12.25;;;0.20;99.90;;;;;;5071541;28;20564;-64
2024/01/20 03:21:04;;;;;;;16.85;11.93;;;0.20;99.90;;;;;;5071236;28;20468;-63
2024/01/20 03:23:31;;;;;;;20.58;12.77;;;0.20;99.90;;;;;;5063433;28;20499;-63
2024/01/20 03:25:58;;;;;;;19.52;12.90;;;0.20;99.90;;;;;;5091760;28;20051;-63
2024/01/20 03:28:25;;;;;;;19.70;13.02;;;0.20;99.90;;;;;;5074101;28;20063;-64
2024/01/20 03:30:53;;;;;;;18.92;13.23;;;0.30;99.90;;;;;;5072743;28;20545;-63
2024/01/20 03:33:20;;;;;;;19.20;12.88;;;0.20;99.90;;;;;;5071873;28;20052;-63
2024/01/20 03:35:47;;;;;;;22.63;15.02;;;0.20;99.90;;;;;;5073094;28;20094;-63
2024/01/20 03:38:13;;;;;;;21.33;14.10;;;0.20;99.90;;;;;;5073829;28;20051;-62
2024/01/20 03:40:43;;;;;;;20.92;14.32;;;0.20;99.90;;;;;;5073532;28;20903;-63
2024/01/20 03:43:10;;;;;;;19.15;14.77;;;0.30;99.90;;;;;;5073168;28;20488;-65
2024/01/20 03:45:38;;;;;;;20.10;14.60;;;0.60;99.90;;;;;;5068910;28;20037;-63
2024/01/20 03:48:07;;;;;;;22.20;15.57;;;0.20;99.90;;;;;;5091895;28;20056;-63
2024/01/20 03:50:33;;;;;;;25.95;15.77;;;0.10;99.90;;;;;;5072473;28;20102;-63
2024/01/20 03:53:00;;;;;;;23.83;15.52;;;0.10;99.90;;;;;;5073147;28;20044;-63
2024/01/20 03:55:27;;;;;;;21.17;14.55;;;0.10;99.90;;;;;;5073841;28;20055;-64
2024/01/20 03:57:54;;;;;;;24.63;16.42;;;0.00;99.90;;;;;;5071847;28;20101;-63
2024/01/20 04:00:21;;;;;;;20.75;16.42;;;0.00;99.90;;;;;;5072251;28;20480;-63
2024/01/20 04:02:48;;;;;;;21.50;16.13;;;0.00;99.90;;;;;;5089545;28;20089;-62
2024/01/20 04:05:16;;;;;;;25.02;17.40;;;-0.10;99.90;;;;;;5072917;28;20098;-63
2024/01/20 04:07:43;;;;;;;23.17;16.05;;;-0.10;99.90;;;;;;5073420;28;20052;-62
2024/01/20 04:10:10;;;;;;;22.67;15.88;;;-0.10;99.90;;;;;;5071316;28;20052;-61
2024/01/20 04:12:39;;;;;;;24.35;16.83;;;0.00;99.90;;;;;;5091737;28;20048;-63
2024/01/20 04:15:07;;;;;;;26.08;16.95;;;1.00;99.90;;;;;;5068949;28;20052;-63
2024/01/20 04:17:34;;;;;;;22.67;16.40;;;-0.10;99.90;;;;;;5091574;28;20052;-63
2024/01/20 04:20:01;;;;;;;18.73;16.73;;;-0.10;99.90;;;;;;5072343;28;20446;-63
2024/01/20 04:22:29;;;;;;;22.60;16.55;;;-0.10;99.90;;;;;;5071499;28;20048;-63
2024/01/20 04:24:56;;;;;;;23.08;16.77;;;-0.20;99.90;;;;;;5052426;28;20493;-64
2024/01/20 04:27:23;;;;;;;27.05;18.60;;;-0.20;99.90;;;;;;5051384;28;20447;-64
2024/01/20 04:29:50;;;;;;;25.50;17.10;;;-0.20;99.90;;;;;;5071238;28;21366;-64
2024/01/20 04:32:16;;;;;;;26.75;17.40;;;-0.20;99.90;;;;;;5053635;28;20448;-63
2024/01/20 04:34:43;;;;;;;29.63;16.83;;;-0.10;99.90;;;;;;5056003;28;20484;-62
2024/01/20 04:37:10;;;;;;;25.63;17.50;;;-0.20;99.90;;;;;;5074909;28;20492;-62
2024/01/20 04:39:38;;;;;;;28.42;18.27;;;-0.10;99.90;;;;;;5056998;28;20403;-64
2024/01/20 04:42:06;;;;;;;25.52;17.33;;;-0.20;99.90;;;;;;5056571;28;20052;-64
2024/01/20 04:44:33;;;;;;;25.75;16.05;;;-0.20;99.90;;;;;;5057020;28;20052;-63
2024/01/20 04:46:59;;;;;;;25.40;17.15;;;-0.20;99.90;;;;;;5056635;28;20125;-63
2024/01/20 04:49:27;;;;;;;26.38;17.55;;;-0.20;99.90;;;;;;5055427;28;20053;-63
2024/01/20 04:51:54;;;;;;;24.00;17.38;;;-0.20;99.90;;;;;;5055112;28;20497;-64
2024/01/20 04:54:21;;;;;;;24.90;17.13;;;-0.30;99.90;;;;;;5056223;28;20079;-63
2024/01/20 04:56:49;;;;;;;22.52;16.08;;;-0.20;99.90;;;;;;5054695;28;20061;-64
2024/01/20 04:59:16;;;;;;;25.95;17.92;;;-0.20;99.90;;;;;;5056412;28;20098;-64
2024/01/20 05:01:42;;;;;;;28.63;16.67;;;0.20;99.90;;;;;;5055271;28;20099;-62
2024/01/20 05:04:09;;;;;;;26.00;17.45;;;-0.20;99.90;;;;;;5055607;28;20048;-63
2024/01/20 05:06:36;;;;;;;31.15;18.33;;;-0.20;99.90;;;;;;5055521;28;20107;-62
2024/01/20 05:09:04;;;;;;;24.45;16.95;;;-0.30;99.90;;;;;;5074249;28;20040;-63
2024/01/20 05:11:31;;;;;;;31.02;19.35;;;-0.30;99.90;;;;;;5055831;28;20063;-63
2024/01/20 05:13:59;;;;;;;25.38;17.10;;;-0.30;99.90;;;;;;5056644;28;20048;-64
2024/01/20 05:16:26;;;;;;;30.30;19.65;;;-0.40;99.90;;;;;;5073588;28;20542;-63
2024/01/20 05:18:53;;;;;;;34.00;19.23;;;-0.30;99.90;;;;;;5056545;28;20097;-64
2024/01/20 05:21:20;;;;;;;27.77;18.75;;;-0.40;99.90;;;;;;5073918;28;20052;-63
2024/01/20 05:23:47;;;;;;;26.60;18.27;;;-0.40;99.90;;;;;;5067877;28;20059;-63
2024/01/20 05:26:14;;;;;;;28.55;17.70;;;-0.40;99.90;;;;;;5075883;28;20040;-64
2024/01/20 05:28:41;;;;;;;29.23;20.00;;;-0.40;99.90;;;;;;5076423;28;20499;-63
2024/01/20 05:31:11;;;;;;;32.15;19.42;;;-0.40;99.90;;;;;;5075654;28;20442;-63
2024/01/20 05:33:37;;;;;;;32.22;19.50;;;-0.50;99.90;;;;;;5076267;28;20079;-62
2024/01/20 05:36:05;;;;;;;31.00;19.60;;;-0.40;99.90;;;;;;5076106;28;20044;-62
2024/01/20 05:38:32;;;;;;;28.40;18.88;;;-0.50;99.90;;;;;;5075489;28;20081;-63
2024/01/20 05:40:59;;;;;;;27.38;19.17;;;-0.50;99.90;;;;;;5075966;28;20482;-63
2024/01/20 05:43:26;;;;;;;29.00;19.05;;;-0.50;99.90;;;;;;5075180;28;20052;-63
2024/01/20 05:45:53;;;;;;;29.75;18.40;;;-0.60;99.90;;;;;;5075172;28;20399;-63
2024/01/20 05:48:21;;;;;;;28.63;18.42;;;-0.60;99.90;;;;;;5093818;28;20385;-63
2024/01/20 05:50:48;;;;;;;28.65;18.88;;;-0.60;99.90;;;;;;5074958;28;20109;-64
2024/01/20 05:53:15;;;;;;;30.83;19.10;;;-0.60;99.90;;;;;;5093052;28;20105;-63
2024/01/20 05:55:42;;;;;;;31.17;19.88;;;-0.70;99.90;;;;;;5093479;28;20060;-63
2024/01/20 05:58:09;;;;;;;28.10;19.23;;;-0.70;99.90;;;;;;5074510;28;20049;-63
2024/01/20 06:00:36;;;;;;;29.80;19.05;;;-0.70;99.90;;;;;;5092975;28;20052;-64
2024/01/20 06:03:04;;;;;;;30.35;20.10;;;-0.70;99.90;;;;;;5093507;28;20043;-63
2024/01/20 06:05:32;;;;;;;28.27;19.35;;;-0.70;99.90;;;;;;5091325;28;20047;-62
2024/01/20 06:07:59;;;;;;;31.92;19.52;;;-0.80;99.90;;;;;;5092641;28;20047;-63
2024/01/20 06:10:26;;;;;;;30.75;20.00;;;-0.80;99.90;;;;;;5084287;28;20048;-62
2024/01/20 06:12:53;;;;;;;30.08;19.40;;;-0.70;99.90;;;;;;5072923;28;20056;-63
2024/01/20 06:15:20;;;;;;;30.50;20.02;;;-0.70;99.90;;;;;;5092469;28;20051;-63
2024/01/20 06:17:47;;;;;;;31.20;18.67;;;-0.70;99.90;;;;;;5072877;28;20052;-63
2024/01/20 06:20:15;;;;;;;34.15;19.17;;;-0.80;99.90;;;;;;5073507;28;20052;-63
2024/01/20 06:22:43;;;;;;;34.25;19.98;;;-0.80;99.90;;;;;;5072373;28;20066;-63
2024/01/20 06:25:10;;;;;;;35.70;19.55;;;-0.80;99.90;;;;;;5074158;28;20044;-63
2024/01/20 06:27:37;;;;;;;34.08;20.65;;;-0.80;99.90;;;;;;5073868;28;20052;-62
2024/01/20 06:30:05;;;;;;;35.92;20.80;;;-0.80;99.90;;;;;;5073544;28;20456;-63
2024/01/20 06:32:32;;;;;;;32.42;17.88;;;-0.80;99.90;;;;;;5092486;28;20403;-63
2024/01/20 06:34:59;;;;;;;34.10;18.23;;;-0.80;99.90;;;;;;5092049;28;20579;-62
2024/01/20 06:37:26;;;;;;;33.05;19.35;;;-0.80;99.90;;;;;;5074241;28;20059;-63
2024/01/20 06:39:54;;;;;;;25.13;17.60;;;-0.80;99.90;;;;;;5092505;28;20101;-64
2024/01/20 06:42:21;;;;;;;31.88;18.70;;;-0.80;99.90;;;;;;5089053;28;20040;-64
2024/01/20 06:44:48;;;;;;;28.80;18.55;;;-0.80;99.90;;;;;;5092340;28;20062;-62
2024/01/20 06:47:15;;;;;;;34.20;19.48;;;-0.90;99.90;;;;;;5092291;28;20377;-63
2024/01/20 06:49:42;;;;;;;29.73;18.58;;;-0.70;99.90;;;;;;5073662;28;20063;-63
2024/01/20 06:52:09;;;;;;;32.50;18.90;;;-0.80;99.90;;;;;;5073717;28;20044;-63
2024/01/20 06:54:38;;;;;;;31.90;19.50;;;-0.90;99.90;;;;;;5074013;28;20060;-62
2024/01/20 06:57:07;;;;;;;32.42;21.13;;;-0.80;99.90;;;;;;5089815;28;20437;-63
2024/01/20 06:59:34;;;;;;;34.92;18.67;;;-0.90;99.90;;;;;;5073425;28;20107;-61
2024/01/20 07:02:01;;;;;;;31.77;19.52;;;-0.80;99.90;;;;;;5071244;28;20541;-63
2024/01/20 07:04:28;;;;;;;28.35;17.63;;;-0.80;99.90;;;;;;5072951;28;20106;-63
2024/01/20 07:06:54;;;;;;;28.50;17.48;;;-0.80;99.90;;;;;;5071476;28;20040;-62
2024/01/20 07:09:21;;;;;;;32.03;19.02;;;-0.80;99.90;;;;;;5090197;28;20058;-61
2024/01/20 07:11:48;;;;;;;32.17;19.05;;;-0.80;99.90;;;;;;5091588;28;20040;-62
2024/01/20 07:14:17;;;;;;;30.90;17.83;;;0.40;99.90;;;;;;5072742;28;20048;-62
2024/01/20 07:16:43;;;;;;;31.13;18.80;;;-0.70;99.90;;;;;;5070697;28;20044;-62
2024/01/20 07:19:10;;;;;;;33.45;18.77;;;0.80;99.90;;;;;;5069949;28;20048;-62
2024/01/20 07:21:37;;;;;;;31.83;19.17;;;-0.70;99.90;;;;;;5071689;28;20057;-62
2024/01/20 07:24:04;;;;;;;30.65;17.52;;;-0.70;99.90;;;;;;5075261;28;20049;-62
2024/01/20 07:26:31;;;;;;;32.35;19.05;;;-0.70;99.90;;;;;;5051269;28;20076;-67
2024/01/20 07:28:58;;;;;;;31.80;18.83;;;-0.70;99.90;;;;;;5052176;28;20052;-63
2024/01/20 07:31:26;;;;;;;34.33;18.35;;;-0.60;99.90;;;;;;5070840;28;20098;-62
2024/01/20 07:33:53;;;;;;;28.30;17.60;;;-0.60;99.90;;;;;;5052854;28;20060;-62
2024/01/20 07:36:20;;;;;;;29.90;18.30;;;-0.60;99.90;;;;;;5071304;28;20048;-63
2024/01/20 07:38:47;;;;;;;29.85;17.38;;;-0.50;99.90;;;;;;5052820;28;20048;-63
2024/01/20 07:41:14;;;;;;;35.45;18.55;;;-0.40;99.90;;;;;;5052290;28;20049;-63
2024/01/20 07:43:41;;;;;;;29.88;17.90;;;-0.40;99.90;;;;;;5051392;28;20496;-62
2024/01/20 07:46:09;;;;;;;30.50;17.13;;;-0.20;99.90;;;;;;5051668;28;20041;-63
2024/01/20 07:48:37;;;;;;;28.25;18.52;;;-0.30;99.90;;;;;;5051403;28;20056;-62
2024/01/20 07:51:04;;;;;;;33.45;19.15;;;-0.10;99.90;;;;;;5052621;28;20061;-62
2024/01/20 07:53:31;;;;;;;41.67;20.15;;;-0.10;99.90;;;;;;5049888;28;20173;-64
2024/01/20 07:55:58;;;;;;;31.52;18.50;;;-0.10;99.90;;;;;;5071135;28;20049;-63
2024/01/20 07:58:25;;;;;;;31.75;18.65;;;0.00;99.90;;;;;;5048368;28;20079;-63
2024/01/20 08:00:52;;;;;;;29.20;17.85;;;1.20;99.90;;;;;;5052386;28;20045;-63
2024/01/20 08:03:19;;;;;;;33.00;17.65;;;0.10;99.90;;;;;;5050208;28;20102;-63
2024/01/20 08:05:47;;;;;;;34.00;17.40;;;0.20;99.90;;;;;;5051723;28;20095;-63
2024/01/20 08:08:14;;;;;;;30.42;18.08;;;0.30;99.90;;;;;;5054566;28;20431;-63
2024/01/20 08:10:41;;;;;;;35.17;18.40;;;0.30;99.90;;;;;;5056427;28;20110;-63
2024/01/20 08:13:07;;;;;;;34.65;18.77;;;0.40;99.90;;;;;;5054318;28;20061;-63
2024/01/20 08:15:34;;;;;;;31.65;17.77;;;0.40;99.90;;;;;;5056033;28;20045;-62
2024/01/20 08:18:01;;;;;;;33.05;19.00;;;0.50;99.90;;;;;;5056611;28;20094;-64
2024/01/20 08:20:28;;;;;;;29.23;17.38;;;0.50;99.90;;;;;;5055244;28;20049;-62
2024/01/20 08:22:57;;;;;;;29.38;17.60;;;0.70;99.90;;;;;;5073468;28;20106;-63
2024/01/20 08:25:24;;;;;;;30.98;19.60;;;0.70;99.90;;;;;;5074735;28;20052;-64
2024/01/20 08:27:51;;;;;;;32.33;18.90;;;0.70;99.90;;;;;;5074015;28;20045;-62
2024/01/20 08:30:18;;;;;;;32.83;18.30;;;0.60;99.90;;;;;;5055663;28;20048;-62
2024/01/20 08:32:44;;;;;;;28.77;16.92;;;0.60;99.90;;;;;;5052807;28;20439;-63
2024/01/20 08:35:12;;;;;;;31.13;18.73;;;0.70;99.90;;;;;;5073986;28;20106;-62
2024/01/20 08:37:38;;;;;;;28.50;17.92;;;0.80;99.90;;;;;;5056376;28;20048;-63
2024/01/20 08:40:08;;;;;;;29.77;18.27;;;0.80;99.90;;;;;;5055336;28;20048;-62
2024/01/20 08:42:35;;;;;;;32.10;18.75;;;0.80;99.90;;;;;;5051714;28;20048;-63
2024/01/20 08:45:03;;;;;;;31.63;18.38;;;0.80;99.90;;;;;;5052941;28;20045;-63
2024/01/20 08:47:29;;;;;;;33.75;18.25;;;0.80;99.90;;;;;;5053724;28;20045;-62
2024/01/20 08:49:56;;;;;;;30.70;17.20;;;0.70;99.90;;;;;;5055708;28;20048;-62
2024/01/20 08:52:23;;;;;;;32.80;18.27;;;0.70;99.90;;;;;;5053548;28;20115;-62
2024/01/20 08:54:50;;;;;;;33.95;18.25;;;0.70;99.90;;;;;;5055636;28;20044;-64
2024/01/20 08:57:21;;;;;;;31.55;17.77;;;1.60;99.90;;;;;;5054912;28;20045;-62
2024/01/20 08:59:48;;;;;;;31.25;17.83;;;1.30;99.90;;;;;;5056059;28;20090;-62
2024/01/20 09:02:15;;;;;;;29.60;17.67;;;0.60;99.90;;;;;;5052648;28;20107;-62
2024/01/20 09:04:42;;;;;;;30.38;16.67;;;0.60;99.90;;;;;;5067595;28;20106;-62
2024/01/20 09:07:09;;;;;;;34.15;18.00;;;0.60;99.90;;;;;;5053955;28;20047;-62
2024/01/20 09:09:36;;;;;;;27.02;16.70;;;0.60;99.90;;;;;;5052510;28;20098;-62
2024/01/20 09:12:05;;;;;;;31.90;17.80;;;0.60;99.90;;;;;;5053704;28;20087;-63
2024/01/20 09:14:41;;;;;;;32.72;17.55;;;0.50;99.90;;;;;;5050854;28;20052;-64
2024/01/20 09:17:08;;;;;;;37.95;18.58;;;0.60;99.90;;;;;;5050328;28;20050;-63
2024/01/20 09:19:35;;;;;;;33.03;18.92;;;0.60;99.90;;;;;;5070647;28;20048;-63
2024/01/20 09:22:02;;;;;;;30.45;17.40;;;0.60;99.90;;;;;;5052593;28;20110;-63
2024/01/20 09:24:29;;;;;;;32.28;18.23;;;0.60;99.90;;;;;;5071567;28;20056;-63
2024/01/20 09:26:56;;;;;;;35.20;19.70;;;0.70;99.90;;;;;;5091979;28;20399;-62
2024/01/20 09:29:23;;;;;;;32.08;18.30;;;0.70;99.90;;;;;;5093043;28;20044;-62
2024/01/20 09:31:51;;;;;;;33.53;16.05;;;0.80;99.90;;;;;;5073980;28;20044;-62
2024/01/20 09:34:18;;;;;;;32.58;18.90;;;0.80;99.90;;;;;;5093032;28;20051;-63
2024/01/20 09:36:45;;;;;;;29.02;17.08;;;0.80;99.90;;;;;;5071520;28;20056;-64
2024/01/20 09:39:12;;;;;;;28.92;17.48;;;0.90;99.90;;;;;;5074061;28;20048;-62
2024/01/20 09:41:40;;;;;;;23.45;16.30;;;0.90;99.90;;;;;;5071819;28;20060;-63
2024/01/20 09:44:08;;;;;;;30.83;17.15;;;0.90;99.90;;;;;;5074222;28;20071;-63
2024/01/20 09:46:37;;;;;;;29.50;17.17;;;1.00;99.90;;;;;;5073310;28;20060;-62
2024/01/20 09:49:05;;;;;;;34.58;17.30;;;1.40;99.90;;;;;;5093011;28;20462;-64
2024/01/20 09:51:32;;;;;;;36.45;17.45;;;1.10;99.90;;;;;;5092553;28;20057;-63
2024/01/20 09:53:59;;;;;;;31.15;15.98;;;1.10;99.90;;;;;;5075000;28;20048;-63
2024/01/20 09:56:26;;;;;;;30.88;17.42;;;1.20;99.90;;;;;;5074788;28;20056;-64
2024/01/20 09:58:56;;;;;;;27.85;16.70;;;1.20;99.90;;;;;;5072136;28;20493;-63
2024/01/20 10:01:23;;;;;;;30.67;16.20;;;1.20;99.90;;;;;;5093188;28;20044;-64
2024/01/20 10:03:51;;;;;;;32.35;16.77;;;1.30;99.90;;;;;;5074537;28;20150;-64
2024/01/20 10:06:19;;;;;;;31.90;17.27;;;1.30;99.90;;;;;;5073859;28;20548;-63
2024/01/20 10:08:46;;;;;;;27.52;16.85;;;1.30;99.90;;;;;;5092673;28;20040;-63
2024/01/20 10:11:13;;;;;;;29.40;16.92;;;1.60;99.90;;;;;;5074473;28;20044;-63
2024/01/20 10:13:40;;;;;;;33.13;16.30;;;1.40;99.90;;;;;;5072997;28;20059;-64
2024/01/20 10:16:08;;;;;;;30.17;15.45;;;1.40;99.90;;;;;;5074170;28;20097;-62
2024/01/20 10:18:35;;;;;;;32.75;15.95;;;1.40;99.90;;;;;;5070405;28;20052;-63
2024/01/20 10:21:03;;;;;;;30.95;15.82;;;1.40;99.90;;;;;;5073085;28;20084;-63
2024/01/20 10:23:34;;;;;;;27.35;16.00;;;1.50;99.90;;;;;;5061827;28;20110;-61
2024/01/20 10:26:02;;;;;;;27.63;15.63;;;1.50;99.90;;;;;;5072664;28;20048;-63
2024/01/20 10:28:29;;;;;;;29.42;16.35;;;1.50;99.90;;;;;;5054281;28;20052;-62
2024/01/20 10:30:56;;;;;;;23.00;14.45;;;1.70;99.90;;;;;;5072178;28;20090;-62
2024/01/20 10:33:23;;;;;;;32.58;15.57;;;1.60;99.90;;;;;;5053310;28;20094;-63
2024/01/20 10:35:51;;;;;;;30.58;15.80;;;1.60;99.90;;;;;;5052387;28;20052;-63
2024/01/20 10:38:21;;;;;;;26.17;15.77;;;1.90;99.90;;;;;;5070468;28;20450;-62
2024/01/20 10:40:52;;;;;;;24.85;16.27;;;1.60;99.90;;;;;;5053220;28;20077;-62
2024/01/20 10:43:20;;;;;;;23.25;14.60;;;1.60;99.90;;;;;;5072523;28;20124;-63
2024/01/20 10:45:53;;;;;;;26.98;15.25;;;1.70;99.90;;;;;;5072443;28;20514;-62
2024/01/20 10:48:22;;;;;;;27.45;15.43;;;1.70;99.90;;;;;;5051847;28;20492;-64
2024/01/20 10:50:54;;;;;;;26.10;15.98;;;1.70;99.90;;;;;;5052714;28;20154;-63
2024/01/20 10:53:21;;;;;;;32.67;16.42;;;1.70;99.90;;;;;;5053009;28;20131;-63
2024/01/20 10:55:50;;;;;;;25.35;15.55;;;1.70;99.90;;;;;;5048435;28;20497;-63
2024/01/20 10:58:21;;;;;;;25.13;15.18;;;2.00;99.90;;;;;;5052522;28;20488;-63
2024/01/20 11:00:49;;;;;;;21.63;13.95;;;1.70;99.90;;;;;;5052172;28;20045;-63
2024/01/20 11:03:16;;;;;;;25.92;14.10;;;1.80;99.90;;;;;;5051825;28;20055;-63
2024/01/20 11:05:46;;;;;;;26.08;14.63;;;1.80;99.90;;;;;;5054422;28;20431;-64
2024/01/20 11:08:13;;;;;;;29.75;15.80;;;1.80;99.90;;;;;;5053722;28;20056;-63
2024/01/20 11:10:41;;;;;;;29.73;14.43;;;1.80;99.90;;;;;;5052149;28;20087;-62
2024/01/20 11:13:11;;;;;;;25.08;14.35;;;1.90;99.90;;;;;;5054128;28;20382;-63
2024/01/20 11:15:40;;;;;;;27.05;14.38;;;1.80;99.90;;;;;;5042772;28;20670;-62
2024/01/20 11:18:17;;;;;;;28.95;15.70;;;1.90;99.90;;;;;;5067734;28;20052;-63
2024/01/20 11:20:54;;;;;;;26.73;14.80;;;1.90;99.90;;;;;;5051168;28;20504;-62
2024/01/20 11:23:21;;;;;;;32.05;16.77;;;1.90;99.90;;;;;;5058985;28;20137;-64
2024/01/20 11:25:48;;;;;;;27.00;14.93;;;1.90;99.90;;;;;;5091737;28;20431;-63
2024/01/20 11:28:25;;;;;;;28.02;14.93;;;2.20;99.90;;;;;;5073118;28;20457;-62
2024/01/20 11:30:52;;;;;;;28.90;15.45;;;2.00;99.90;;;;;;5072344;28;20127;-63
2024/01/20 11:33:19;;;;;;;26.92;15.38;;;2.00;99.90;;;;;;5089453;28;20561;-63
2024/01/20 11:35:46;;;;;;;25.05;15.20;;;2.00;99.90;;;;;;5091386;28;20040;-63
2024/01/20 11:38:15;;;;;;;24.75;13.82;;;2.00;99.90;;;;;;5071816;28;20052;-63
2024/01/20 11:40:42;;;;;;;30.13;16.15;;;2.00;99.90;;;;;;5070754;28;20052;-63
2024/01/20 11:43:11;;;;;;;27.23;15.85;;;2.00;99.90;;;;;;5076035;28;20098;-63
2024/01/20 11:45:39;;;;;;;29.40;16.88;;;2.00;99.90;;;;;;5076452;28;20133;-63
2024/01/20 11:48:07;;;;;;;28.60;15.85;;;2.00;99.90;;;;;;5077280;28;20102;-63
2024/01/20 11:50:34;;;;;;;30.88;17.27;;;2.00;99.90;;;;;;5075002;28;20109;-62
2024/01/20 11:53:01;;;;;;;30.05;15.60;;;2.00;99.90;;;;;;5076951;28;20048;-63
2024/01/20 11:55:28;;;;;;;30.38;16.38;;;2.00;99.90;;;;;;5076074;28;20319;-63
2024/01/20 11:57:55;;;;;;;25.85;16.60;;;2.00;99.90;;;;;;5074590;28;20040;-63
2024/01/20 12:00:22;;;;;;;26.50;15.52;;;2.00;99.90;;;;;;5095697;28;20044;-63
2024/01/20 12:02:52;;;;;;;29.70;16.58;;;2.30;99.90;;;;;;5077098;28;20125;-62
2024/01/20 12:05:19;;;;;;;28.40;18.00;;;2.00;99.90;;;;;;5073306;28;20113;-63
2024/01/20 12:07:47;;;;;;;30.27;16.20;;;2.00;99.90;;;;;;5072447;28;20128;-64
2024/01/20 12:10:16;;;;;;;34.28;17.52;;;2.10;99.90;;;;;;5074716;28;20056;-63
2024/01/20 12:12:43;;;;;;;34.17;17.38;;;2.10;99.90;;;;;;5092837;28;20079;-63
2024/01/20 12:15:11;;;;;;;34.85;19.20;;;2.10;99.90;;;;;;5077679;28;20047;-63
2024/01/20 12:17:38;;;;;;;27.48;16.98;;;2.20;99.90;;;;;;5075415;28;20048;-63
2024/01/20 12:20:08;;;;;;;30.23;18.70;;;2.40;99.90;;;;;;5090202;28;20495;-63
2024/01/20 12:22:37;;;;;;;30.90;18.55;;;2.30;99.90;;;;;;5070242;28;20055;-62
2024/01/20 12:25:04;;;;;;;29.08;17.73;;;2.50;99.90;;;;;;5054015;28;20082;-64
2024/01/20 12:27:31;;;;;;;29.48;17.15;;;2.50;99.90;;;;;;5053939;28;20072;-63
2024/01/20 12:29:58;;;;;;;29.45;17.25;;;2.60;99.90;;;;;;5055852;28;20053;-62
2024/01/20 12:32:25;;;;;;;25.77;16.25;;;2.70;99.90;;;;;;5055237;28;20491;-63
2024/01/20 12:34:53;;;;;;;33.30;16.80;;;3.10;99.90;;;;;;5055307;28;20052;-64
2024/01/20 12:37:21;;;;;;;25.20;16.42;;;2.90;99.90;;;;;;5052830;28;20087;-63